EWG7DB EDDH-LIPZ
Flight info
| Callsign | EWG7DB |
|---|---|
| Flight time | 1h 29m |
| Altitude | 35000 |
| Route | IDEKO7G IDEKO N850 LARBU/N0455F370 N850 XAROL/N0457F360 DCT BOMBI DCT GIGET DCT ABUKA/N0456F370 DCT TEDGO DCT BATUB/N0469F290 M738 ADOSA L612 ALBET |
| Aircraft | A319/M-SDE3FGHIRWY/LB1 |
Departure
| Time | 2026-05-06 18:02 |
|---|---|
| Airport | Hamburg Helmut Schmidt Airport (EDDH) |
Arrival
| Time | 2026-05-06 19:31 |
|---|---|
| Airport | Venice Marco Polo Airport (LIPZ) |
| Time | Latitude | Longitude | Altitude | Speed | Heading |
|---|---|---|---|---|---|
| 2026-05-06 17:23 | 53.62772 | 10.00273 | 51 ft | 0 kts | 63° |
| 2026-05-06 17:54 | 53.62763 | 10.00241 | 48 ft | 4 kts | 64° |
| 2026-05-06 17:54 | 53.62751 | 10.00200 | 49 ft | 4 kts | 63° |
| 2026-05-06 17:54 | 53.62743 | 10.00171 | 49 ft | 4 kts | 102° |
| 2026-05-06 17:55 | 53.62756 | 10.00148 | 47 ft | 3 kts | 154° |
| 2026-05-06 17:55 | 53.62754 | 10.00146 | 47 ft | 0 kts | 150° |
| 2026-05-06 17:57 | 53.62717 | 10.00181 | 50 ft | 14 kts | 153° |
| 2026-05-06 17:57 | 53.62640 | 10.00246 | 50 ft | 13 kts | 153° |
| 2026-05-06 17:58 | 53.62575 | 10.00217 | 48 ft | 7 kts | 239° |
| 2026-05-06 17:58 | 53.62569 | 10.00199 | 50 ft | 0 kts | 242° |
| 2026-05-06 17:59 | 53.62568 | 10.00195 | 49 ft | 2 kts | 242° |
| 2026-05-06 17:59 | 53.62549 | 10.00135 | 48 ft | 9 kts | 243° |
| 2026-05-06 17:59 | 53.62556 | 10.00027 | 45 ft | 5 kts | 307° |
| 2026-05-06 18:00 | 53.62573 | 9.99999 | 47 ft | 5 kts | 321° |
| 2026-05-06 18:00 | 53.62611 | 9.99964 | 47 ft | 8 kts | 332° |
| 2026-05-06 18:00 | 53.62671 | 9.99912 | 48 ft | 12 kts | 331° |
| 2026-05-06 18:00 | 53.62760 | 9.99837 | 49 ft | 17 kts | 332° |
| 2026-05-06 18:01 | 53.62860 | 9.99748 | 48 ft | 12 kts | 330° |
| 2026-05-06 18:01 | 53.62900 | 9.99713 | 50 ft | 0 kts | 334° |
| 2026-05-06 18:01 | 53.62924 | 9.99692 | 50 ft | 25 kts | 332° |
| 2026-05-06 18:02 | 53.63318 | 9.99356 | 49 ft | 98 kts | 333° |
| 2026-05-06 18:02 | 53.64115 | 9.98668 | 51 ft | 157 kts | 333° |
| 2026-05-06 18:02 | 53.65114 | 9.97784 | 723 ft | 149 kts | 334° |
| 2026-05-06 18:02 | 53.65956 | 9.97012 | 1628 ft | 133 kts | 339° |
| 2026-05-06 18:03 | 53.66795 | 9.96291 | 2054 ft | 142 kts | 341° |
| 2026-05-06 18:03 | 53.67743 | 9.95511 | 2341 ft | 165 kts | 340° |
| 2026-05-06 18:03 | 53.68847 | 9.94600 | 2678 ft | 188 kts | 340° |
| 2026-05-06 18:03 | 53.70098 | 9.93544 | 3063 ft | 213 kts | 335° |
| 2026-05-06 18:04 | 53.71159 | 9.91685 | 3803 ft | 231 kts | 298° |
| 2026-05-06 18:04 | 53.71417 | 9.88911 | 4422 ft | 257 kts | 262° |
| 2026-05-06 18:04 | 53.70940 | 9.85864 | 5049 ft | 276 kts | 252° |
| 2026-05-06 18:04 | 53.70318 | 9.82797 | 6044 ft | 281 kts | 251° |
| 2026-05-06 18:05 | 53.69651 | 9.79674 | 7064 ft | 283 kts | 251° |
| 2026-05-06 18:05 | 53.68980 | 9.76528 | 8047 ft | 286 kts | 251° |
| 2026-05-06 18:05 | 53.68314 | 9.73342 | 9000 ft | 290 kts | 252° |
| 2026-05-06 18:05 | 53.67650 | 9.70087 | 9664 ft | 295 kts | 253° |
| 2026-05-06 18:06 | 53.66993 | 9.66801 | 9845 ft | 296 kts | 253° |
| 2026-05-06 18:06 | 53.66211 | 9.63431 | 9895 ft | 326 kts | 243° |
| 2026-05-06 18:06 | 53.64794 | 9.60298 | 9888 ft | 353 kts | 223° |
| 2026-05-06 18:06 | 53.62722 | 9.57995 | 9889 ft | 362 kts | 203° |
| 2026-05-06 18:07 | 53.60251 | 9.57007 | 10492 ft | 367 kts | 185° |
| 2026-05-06 18:07 | 53.57713 | 9.56513 | 11361 ft | 366 kts | 186° |
| 2026-05-06 18:07 | 53.55175 | 9.55999 | 12176 ft | 367 kts | 186° |
| 2026-05-06 18:07 | 53.52632 | 9.55477 | 12946 ft | 369 kts | 187° |
| 2026-05-06 18:08 | 53.50106 | 9.54962 | 13677 ft | 372 kts | 187° |
| 2026-05-06 18:08 | 53.47527 | 9.54445 | 14362 ft | 373 kts | 187° |
| 2026-05-06 18:08 | 53.44940 | 9.53930 | 15037 ft | 375 kts | 187° |
| 2026-05-06 18:08 | 53.42338 | 9.53416 | 15726 ft | 377 kts | 188° |
| 2026-05-06 18:09 | 53.39715 | 9.52898 | 16357 ft | 381 kts | 188° |
| 2026-05-06 18:09 | 53.37073 | 9.52375 | 17003 ft | 384 kts | 188° |
| 2026-05-06 18:09 | 53.34404 | 9.51846 | 17638 ft | 387 kts | 188° |
| 2026-05-06 18:09 | 53.31720 | 9.51322 | 18289 ft | 390 kts | 188° |
| 2026-05-06 18:10 | 53.29050 | 9.50806 | 18841 ft | 393 kts | 188° |
| 2026-05-06 18:10 | 53.26322 | 9.50278 | 19377 ft | 396 kts | 188° |
| 2026-05-06 18:10 | 53.23573 | 9.49740 | 19767 ft | 399 kts | 188° |
| 2026-05-06 18:10 | 53.20814 | 9.49199 | 19864 ft | 399 kts | 188° |
| 2026-05-06 18:11 | 53.18050 | 9.48663 | 19896 ft | 400 kts | 188° |
| 2026-05-06 18:11 | 53.15271 | 9.48127 | 20366 ft | 403 kts | 188° |
| 2026-05-06 18:11 | 53.12469 | 9.47587 | 20890 ft | 406 kts | 188° |
| 2026-05-06 18:11 | 53.09652 | 9.47040 | 21384 ft | 409 kts | 188° |
| 2026-05-06 18:12 | 53.06837 | 9.46495 | 21846 ft | 412 kts | 188° |
| 2026-05-06 18:12 | 53.03976 | 9.45943 | 22301 ft | 415 kts | 188° |
| 2026-05-06 18:12 | 53.01101 | 9.45386 | 22734 ft | 417 kts | 188° |
| 2026-05-06 18:12 | 52.98196 | 9.44819 | 23162 ft | 420 kts | 188° |
| 2026-05-06 18:13 | 52.95276 | 9.44215 | 23548 ft | 423 kts | 188° |
| 2026-05-06 18:13 | 52.92346 | 9.43583 | 23895 ft | 426 kts | 188° |
| 2026-05-06 18:13 | 52.89394 | 9.42939 | 24253 ft | 428 kts | 188° |
| 2026-05-06 18:13 | 52.86435 | 9.42291 | 24606 ft | 430 kts | 189° |
| 2026-05-06 18:14 | 52.83498 | 9.41651 | 24971 ft | 431 kts | 189° |
| 2026-05-06 18:14 | 52.80500 | 9.41006 | 25315 ft | 434 kts | 188° |
| 2026-05-06 18:14 | 52.77490 | 9.40365 | 25647 ft | 436 kts | 188° |
| 2026-05-06 18:14 | 52.74463 | 9.39722 | 25991 ft | 438 kts | 188° |
| 2026-05-06 18:15 | 52.71427 | 9.39081 | 26333 ft | 441 kts | 188° |
| 2026-05-06 18:15 | 52.68410 | 9.38447 | 26637 ft | 443 kts | 188° |
| 2026-05-06 18:15 | 52.65340 | 9.37804 | 26938 ft | 446 kts | 188° |
| 2026-05-06 18:15 | 52.62258 | 9.37157 | 27272 ft | 447 kts | 189° |
| 2026-05-06 18:16 | 52.59165 | 9.36439 | 27637 ft | 448 kts | 190° |
| 2026-05-06 18:16 | 52.56068 | 9.35639 | 27948 ft | 450 kts | 191° |
| 2026-05-06 18:16 | 52.53015 | 9.34805 | 28245 ft | 452 kts | 191° |
| 2026-05-06 18:16 | 52.49903 | 9.33943 | 28540 ft | 454 kts | 191° |
| 2026-05-06 18:17 | 52.46778 | 9.33083 | 28853 ft | 455 kts | 191° |
| 2026-05-06 18:17 | 52.43640 | 9.32236 | 29289 ft | 454 kts | 191° |
| 2026-05-06 18:17 | 52.40524 | 9.31414 | 29723 ft | 454 kts | 191° |
| 2026-05-06 18:17 | 52.37443 | 9.30614 | 30125 ft | 452 kts | 191° |
| 2026-05-06 18:18 | 52.34331 | 9.29814 | 30542 ft | 450 kts | 191° |
| 2026-05-06 18:18 | 52.31236 | 9.29016 | 30962 ft | 448 kts | 191° |
| 2026-05-06 18:18 | 52.28161 | 9.28216 | 31381 ft | 446 kts | 191° |
| 2026-05-06 18:18 | 52.25092 | 9.27414 | 31806 ft | 444 kts | 191° |
| 2026-05-06 18:19 | 52.22045 | 9.26642 | 32239 ft | 442 kts | 190° |
| 2026-05-06 18:19 | 52.19042 | 9.26002 | 32677 ft | 441 kts | 188° |
| 2026-05-06 18:19 | 52.15993 | 9.25453 | 33123 ft | 439 kts | 188° |
| 2026-05-06 18:19 | 52.12955 | 9.24960 | 33601 ft | 437 kts | 187° |
| 2026-05-06 18:20 | 52.09934 | 9.24475 | 34028 ft | 435 kts | 188° |
| 2026-05-06 18:20 | 52.06931 | 9.23974 | 34374 ft | 434 kts | 188° |
| 2026-05-06 18:20 | 52.03930 | 9.23423 | 34687 ft | 433 kts | 189° |
| 2026-05-06 18:20 | 52.00939 | 9.22736 | 34808 ft | 433 kts | 191° |
| 2026-05-06 18:21 | 51.95044 | 9.21125 | 34833 ft | 431 kts | 192° |
| 2026-05-06 18:21 | 51.89126 | 9.19459 | 34833 ft | 431 kts | 191° |
| 2026-05-06 18:22 | 51.83223 | 9.18010 | 34825 ft | 431 kts | 189° |
| 2026-05-06 18:22 | 51.77263 | 9.16784 | 34824 ft | 431 kts | 189° |
| 2026-05-06 18:23 | 51.71305 | 9.15563 | 34823 ft | 431 kts | 189° |
| 2026-05-06 18:23 | 51.65360 | 9.14297 | 34815 ft | 431 kts | 189° |
| 2026-05-06 18:24 | 51.59445 | 9.13015 | 34818 ft | 430 kts | 189° |
| 2026-05-06 18:24 | 51.53501 | 9.11724 | 34820 ft | 430 kts | 189° |
| 2026-05-06 18:25 | 51.47588 | 9.10288 | 34819 ft | 429 kts | 192° |
| 2026-05-06 18:25 | 51.41775 | 9.08290 | 34807 ft | 428 kts | 194° |
| 2026-05-06 18:26 | 51.35963 | 9.06139 | 34811 ft | 428 kts | 194° |
| 2026-05-06 18:26 | 51.30121 | 9.04162 | 34806 ft | 429 kts | 192° |
| 2026-05-06 18:27 | 51.24198 | 9.02869 | 34807 ft | 430 kts | 188° |
| 2026-05-06 18:27 | 51.18289 | 9.01890 | 34806 ft | 429 kts | 188° |
| 2026-05-06 18:28 | 51.12344 | 9.00815 | 34810 ft | 429 kts | 189° |
| 2026-05-06 18:28 | 51.06426 | 8.99626 | 34812 ft | 428 kts | 189° |
| 2026-05-06 18:29 | 51.00504 | 8.98422 | 34937 ft | 429 kts | 189° |
| 2026-05-06 18:29 | 50.97537 | 8.97831 | 35284 ft | 428 kts | 189° |
| 2026-05-06 18:29 | 50.94578 | 8.97248 | 35633 ft | 427 kts | 189° |
| 2026-05-06 18:30 | 50.91625 | 8.96668 | 35929 ft | 427 kts | 189° |
| 2026-05-06 18:30 | 50.88671 | 8.96089 | 36205 ft | 427 kts | 189° |
| 2026-05-06 18:30 | 50.85727 | 8.95513 | 36594 ft | 423 kts | 189° |
| 2026-05-06 18:30 | 50.82792 | 8.94940 | 36785 ft | 426 kts | 189° |
| 2026-05-06 18:31 | 50.76878 | 8.93775 | 36816 ft | 429 kts | 189° |
| 2026-05-06 18:31 | 50.70972 | 8.92612 | 36813 ft | 429 kts | 189° |
| 2026-05-06 18:32 | 50.65042 | 8.91457 | 36813 ft | 429 kts | 189° |
| 2026-05-06 18:32 | 50.59106 | 8.90308 | 36813 ft | 429 kts | 189° |
| 2026-05-06 18:33 | 50.53213 | 8.89159 | 36806 ft | 429 kts | 189° |
| 2026-05-06 18:33 | 50.47277 | 8.88004 | 36814 ft | 428 kts | 189° |
| 2026-05-06 18:34 | 50.41386 | 8.86867 | 36813 ft | 428 kts | 189° |
| 2026-05-06 18:34 | 50.35474 | 8.85727 | 36813 ft | 428 kts | 189° |
| 2026-05-06 18:35 | 50.29552 | 8.84588 | 36811 ft | 428 kts | 188° |
| 2026-05-06 18:35 | 50.23642 | 8.83456 | 36817 ft | 428 kts | 188° |
| 2026-05-06 18:36 | 50.17765 | 8.82331 | 36820 ft | 428 kts | 188° |
| 2026-05-06 18:36 | 50.11846 | 8.81205 | 36822 ft | 428 kts | 188° |
| 2026-05-06 18:37 | 50.06929 | 8.80270 | 36820 ft | 428 kts | 188° |
| 2026-05-06 18:37 | 50.00059 | 8.78911 | 36823 ft | 427 kts | 189° |
| 2026-05-06 18:38 | 49.95159 | 8.77877 | 36824 ft | 427 kts | 189° |
| 2026-05-06 18:38 | 49.89255 | 8.76624 | 36812 ft | 427 kts | 189° |
| 2026-05-06 18:39 | 49.83356 | 8.75391 | 36810 ft | 427 kts | 189° |
| 2026-05-06 18:40 | 49.74510 | 8.73562 | 36823 ft | 428 kts | 189° |
| 2026-05-06 18:40 | 49.68595 | 8.72357 | 36826 ft | 428 kts | 189° |
| 2026-05-06 18:41 | 49.62718 | 8.71172 | 36835 ft | 428 kts | 188° |
| 2026-05-06 18:41 | 49.56803 | 8.69981 | 36827 ft | 428 kts | 188° |
| 2026-05-06 18:42 | 49.50890 | 8.68804 | 36829 ft | 429 kts | 187° |
| 2026-05-06 18:42 | 49.44972 | 8.69456 | 36828 ft | 433 kts | 167° |
| 2026-05-06 18:43 | 49.39339 | 8.72931 | 36822 ft | 437 kts | 158° |
| 2026-05-06 18:43 | 49.33834 | 8.76765 | 36823 ft | 437 kts | 158° |
| 2026-05-06 18:44 | 49.28286 | 8.80604 | 36826 ft | 437 kts | 158° |
| 2026-05-06 18:44 | 49.22735 | 8.84440 | 36834 ft | 437 kts | 158° |
| 2026-05-06 18:45 | 49.17184 | 8.88269 | 36808 ft | 437 kts | 159° |
| 2026-05-06 18:45 | 49.11629 | 8.92087 | 36818 ft | 437 kts | 159° |
| 2026-05-06 18:46 | 49.06069 | 8.95900 | 36820 ft | 437 kts | 159° |
| 2026-05-06 18:46 | 49.00542 | 8.99683 | 36829 ft | 437 kts | 159° |
| 2026-05-06 18:47 | 48.94980 | 9.03478 | 36832 ft | 437 kts | 159° |
| 2026-05-06 18:47 | 48.89427 | 9.07265 | 36847 ft | 437 kts | 159° |
| 2026-05-06 18:48 | 48.83899 | 9.11026 | 36852 ft | 437 kts | 159° |
| 2026-05-06 18:48 | 48.78347 | 9.14787 | 36856 ft | 436 kts | 159° |
| 2026-05-06 18:49 | 48.72819 | 9.18517 | 36838 ft | 436 kts | 159° |
| 2026-05-06 18:49 | 48.67262 | 9.22271 | 36855 ft | 436 kts | 159° |
| 2026-05-06 18:50 | 48.61713 | 9.25969 | 36859 ft | 434 kts | 162° |
| 2026-05-06 18:50 | 48.56027 | 9.28909 | 36866 ft | 433 kts | 164° |
| 2026-05-06 18:51 | 48.50315 | 9.31829 | 36873 ft | 433 kts | 164° |
| 2026-05-06 18:51 | 48.44645 | 9.34739 | 36873 ft | 433 kts | 164° |
| 2026-05-06 18:52 | 48.38921 | 9.37663 | 36879 ft | 433 kts | 164° |
| 2026-05-06 18:52 | 48.33244 | 9.40548 | 36882 ft | 433 kts | 164° |
| 2026-05-06 18:53 | 48.27533 | 9.43449 | 36882 ft | 433 kts | 164° |
| 2026-05-06 18:53 | 48.21818 | 9.46352 | 36848 ft | 433 kts | 165° |
| 2026-05-06 18:54 | 48.16139 | 9.49220 | 36866 ft | 433 kts | 165° |
| 2026-05-06 18:54 | 48.10419 | 9.52105 | 36880 ft | 433 kts | 165° |
| 2026-05-06 18:55 | 48.04728 | 9.54970 | 36893 ft | 433 kts | 165° |
| 2026-05-06 18:55 | 47.99352 | 9.59149 | 36895 ft | 441 kts | 148° |
| 2026-05-06 18:56 | 47.94379 | 9.64555 | 36902 ft | 442 kts | 148° |
| 2026-05-06 18:56 | 47.89397 | 9.69932 | 36910 ft | 442 kts | 148° |
| 2026-05-06 18:57 | 47.84411 | 9.75297 | 36886 ft | 442 kts | 148° |
| 2026-05-06 18:57 | 47.79432 | 9.80651 | 36907 ft | 441 kts | 148° |
| 2026-05-06 18:58 | 47.74474 | 9.85962 | 36912 ft | 441 kts | 148° |
| 2026-05-06 18:58 | 47.69487 | 9.91290 | 36920 ft | 441 kts | 148° |
| 2026-05-06 18:59 | 47.64497 | 9.96606 | 36926 ft | 441 kts | 148° |
| 2026-05-06 18:59 | 47.62038 | 9.99219 | 36817 ft | 439 kts | 149° |
| 2026-05-06 18:59 | 47.59546 | 10.01864 | 36453 ft | 440 kts | 149° |
| 2026-05-06 18:59 | 47.57058 | 10.04500 | 36104 ft | 440 kts | 149° |
| 2026-05-06 19:00 | 47.54563 | 10.07145 | 35753 ft | 441 kts | 149° |
| 2026-05-06 19:00 | 47.52071 | 10.09791 | 35339 ft | 441 kts | 149° |
| 2026-05-06 19:00 | 47.49572 | 10.12441 | 34980 ft | 442 kts | 149° |
| 2026-05-06 19:00 | 47.47072 | 10.15087 | 34616 ft | 442 kts | 150° |
| 2026-05-06 19:01 | 47.44560 | 10.17738 | 34228 ft | 443 kts | 150° |
| 2026-05-06 19:01 | 47.42029 | 10.20308 | 33837 ft | 441 kts | 152° |
| 2026-05-06 19:01 | 47.39441 | 10.22751 | 33381 ft | 440 kts | 154° |
| 2026-05-06 19:01 | 47.36825 | 10.25098 | 32909 ft | 440 kts | 155° |
| 2026-05-06 19:02 | 47.34221 | 10.27383 | 32438 ft | 440 kts | 155° |
| 2026-05-06 19:02 | 47.31591 | 10.29691 | 32035 ft | 439 kts | 156° |
| 2026-05-06 19:02 | 47.28967 | 10.32012 | 31492 ft | 439 kts | 156° |
| 2026-05-06 19:02 | 47.26359 | 10.34336 | 30990 ft | 438 kts | 156° |
| 2026-05-06 19:03 | 47.23757 | 10.36672 | 30430 ft | 438 kts | 156° |
| 2026-05-06 19:03 | 47.21155 | 10.39015 | 29814 ft | 437 kts | 156° |
| 2026-05-06 19:03 | 47.18558 | 10.41357 | 29118 ft | 438 kts | 155° |
| 2026-05-06 19:03 | 47.15981 | 10.43679 | 28866 ft | 439 kts | 155° |
| 2026-05-06 19:04 | 47.13366 | 10.46027 | 28879 ft | 440 kts | 155° |
| 2026-05-06 19:04 | 47.08120 | 10.50725 | 28878 ft | 440 kts | 156° |
| 2026-05-06 19:05 | 47.02628 | 10.54288 | 28891 ft | 426 kts | 169° |
| 2026-05-06 19:05 | 46.96942 | 10.56832 | 28890 ft | 427 kts | 169° |
| 2026-05-06 19:06 | 46.91289 | 10.59394 | 28899 ft | 427 kts | 169° |
| 2026-05-06 19:06 | 46.85615 | 10.61968 | 28906 ft | 425 kts | 169° |
| 2026-05-06 19:07 | 46.79998 | 10.64494 | 28889 ft | 425 kts | 170° |
| 2026-05-06 19:07 | 46.74345 | 10.67022 | 28915 ft | 424 kts | 170° |
| 2026-05-06 19:08 | 46.68661 | 10.69331 | 28947 ft | 421 kts | 173° |
| 2026-05-06 19:08 | 46.62999 | 10.71122 | 28951 ft | 418 kts | 175° |
| 2026-05-06 19:09 | 46.57473 | 10.74056 | 28959 ft | 437 kts | 156° |
| 2026-05-06 19:09 | 46.52308 | 10.78778 | 28955 ft | 438 kts | 156° |
| 2026-05-06 19:10 | 46.47163 | 10.83529 | 28960 ft | 438 kts | 156° |
| 2026-05-06 19:10 | 46.44606 | 10.85889 | 28366 ft | 435 kts | 156° |
| 2026-05-06 19:10 | 46.42033 | 10.88254 | 27508 ft | 438 kts | 155° |
| 2026-05-06 19:10 | 46.39454 | 10.90618 | 26623 ft | 440 kts | 155° |
| 2026-05-06 19:11 | 46.36849 | 10.92994 | 25753 ft | 445 kts | 155° |
| 2026-05-06 19:11 | 46.34248 | 10.95357 | 24896 ft | 448 kts | 155° |
| 2026-05-06 19:11 | 46.31604 | 10.97762 | 24230 ft | 447 kts | 154° |
| 2026-05-06 19:11 | 46.28976 | 11.00156 | 23640 ft | 444 kts | 154° |
| 2026-05-06 19:12 | 46.26374 | 11.02529 | 22949 ft | 440 kts | 154° |
| 2026-05-06 19:12 | 46.23784 | 11.04891 | 22313 ft | 437 kts | 154° |
| 2026-05-06 19:12 | 46.21226 | 11.07218 | 21696 ft | 433 kts | 153° |
| 2026-05-06 19:12 | 46.18711 | 11.09499 | 21169 ft | 429 kts | 153° |
| 2026-05-06 19:13 | 46.16187 | 11.11782 | 20550 ft | 425 kts | 153° |
| 2026-05-06 19:13 | 46.13678 | 11.14048 | 20099 ft | 424 kts | 153° |
| 2026-05-06 19:13 | 46.11176 | 11.16301 | 19953 ft | 423 kts | 153° |
| 2026-05-06 19:13 | 46.08696 | 11.18531 | 19854 ft | 421 kts | 153° |
| 2026-05-06 19:14 | 46.06226 | 11.20752 | 19173 ft | 418 kts | 153° |
| 2026-05-06 19:14 | 46.03763 | 11.22966 | 18484 ft | 415 kts | 153° |
| 2026-05-06 19:14 | 46.01327 | 11.25157 | 17801 ft | 412 kts | 153° |
| 2026-05-06 19:14 | 45.98905 | 11.27333 | 17134 ft | 409 kts | 153° |
| 2026-05-06 19:15 | 45.96496 | 11.29498 | 16512 ft | 406 kts | 152° |
| 2026-05-06 19:15 | 45.94112 | 11.31640 | 15957 ft | 402 kts | 152° |
| 2026-05-06 19:15 | 45.91778 | 11.33737 | 15412 ft | 398 kts | 152° |
| 2026-05-06 19:15 | 45.89405 | 11.35865 | 14907 ft | 395 kts | 152° |
| 2026-05-06 19:16 | 45.87111 | 11.37916 | 14445 ft | 392 kts | 152° |
| 2026-05-06 19:16 | 45.84798 | 11.39983 | 13913 ft | 389 kts | 152° |
| 2026-05-06 19:16 | 45.82512 | 11.42024 | 13331 ft | 385 kts | 152° |
| 2026-05-06 19:16 | 45.80231 | 11.44054 | 12837 ft | 385 kts | 152° |
| 2026-05-06 19:17 | 45.77962 | 11.46069 | 12318 ft | 381 kts | 152° |
| 2026-05-06 19:17 | 45.75733 | 11.48045 | 11739 ft | 378 kts | 152° |
| 2026-05-06 19:17 | 45.73498 | 11.50027 | 11365 ft | 378 kts | 152° |
| 2026-05-06 19:17 | 45.71264 | 11.52007 | 11015 ft | 378 kts | 151° |
| 2026-05-06 19:18 | 45.69031 | 11.53987 | 10662 ft | 376 kts | 151° |
| 2026-05-06 19:18 | 45.66806 | 11.55960 | 10327 ft | 376 kts | 152° |
| 2026-05-06 19:18 | 45.64579 | 11.57936 | 9968 ft | 374 kts | 151° |
| 2026-05-06 19:18 | 45.62416 | 11.59855 | 9619 ft | 365 kts | 151° |
| 2026-05-06 19:19 | 45.60285 | 11.61747 | 9252 ft | 354 kts | 151° |
| 2026-05-06 19:19 | 45.58226 | 11.63571 | 8930 ft | 340 kts | 151° |
| 2026-05-06 19:19 | 45.56274 | 11.65299 | 8660 ft | 319 kts | 151° |
| 2026-05-06 19:19 | 45.54436 | 11.66921 | 8403 ft | 302 kts | 152° |
| 2026-05-06 19:20 | 45.52708 | 11.68441 | 8148 ft | 288 kts | 152° |
| 2026-05-06 19:20 | 45.51028 | 11.69915 | 7894 ft | 279 kts | 152° |
| 2026-05-06 19:20 | 45.49382 | 11.71355 | 7649 ft | 277 kts | 152° |
| 2026-05-06 19:20 | 45.47728 | 11.72802 | 7344 ft | 279 kts | 152° |
| 2026-05-06 19:21 | 45.46088 | 11.74237 | 7052 ft | 280 kts | 152° |
| 2026-05-06 19:21 | 45.44423 | 11.75697 | 6753 ft | 282 kts | 151° |
| 2026-05-06 19:21 | 45.42749 | 11.77165 | 6464 ft | 283 kts | 151° |
| 2026-05-06 19:21 | 45.41073 | 11.78632 | 6168 ft | 283 kts | 151° |
| 2026-05-06 19:22 | 45.39390 | 11.80104 | 5869 ft | 284 kts | 151° |
| 2026-05-06 19:22 | 45.37702 | 11.81577 | 5555 ft | 284 kts | 150° |
| 2026-05-06 19:22 | 45.36021 | 11.83053 | 5251 ft | 284 kts | 149° |
| 2026-05-06 19:22 | 45.34508 | 11.84875 | 4946 ft | 287 kts | 133° |
| 2026-05-06 19:23 | 45.33495 | 11.87260 | 4792 ft | 284 kts | 115° |
| 2026-05-06 19:23 | 45.32716 | 11.89805 | 4696 ft | 275 kts | 115° |
| 2026-05-06 19:23 | 45.31997 | 11.92195 | 4821 ft | 255 kts | 115° |
| 2026-05-06 19:23 | 45.31316 | 11.94474 | 4693 ft | 246 kts | 115° |
| 2026-05-06 19:24 | 45.30658 | 11.96673 | 4531 ft | 239 kts | 115° |
| 2026-05-06 19:24 | 45.30012 | 11.98830 | 4246 ft | 237 kts | 115° |
| 2026-05-06 19:24 | 45.29371 | 12.00969 | 4052 ft | 234 kts | 115° |
| 2026-05-06 19:24 | 45.28963 | 12.02388 | 4017 ft | 234 kts | 111° |
| 2026-05-06 19:25 | 45.28773 | 12.05477 | 4028 ft | 240 kts | 82° |
| 2026-05-06 19:25 | 45.29316 | 12.07657 | 4027 ft | 233 kts | 60° |
| 2026-05-06 19:25 | 45.30331 | 12.09383 | 4027 ft | 226 kts | 42° |
| 2026-05-06 19:25 | 45.31499 | 12.10865 | 4036 ft | 224 kts | 42° |
| 2026-05-06 19:26 | 45.32661 | 12.12343 | 4035 ft | 224 kts | 42° |
| 2026-05-06 19:26 | 45.33432 | 12.13325 | 4021 ft | 225 kts | 42° |
| 2026-05-06 19:26 | 45.34986 | 12.15306 | 3777 ft | 226 kts | 42° |
| 2026-05-06 19:26 | 45.36159 | 12.16802 | 3482 ft | 227 kts | 42° |
| 2026-05-06 19:27 | 45.37323 | 12.18288 | 3212 ft | 223 kts | 43° |
| 2026-05-06 19:27 | 45.38470 | 12.19752 | 2879 ft | 218 kts | 42° |
| 2026-05-06 19:27 | 45.39210 | 12.20698 | 2686 ft | 213 kts | 42° |
| 2026-05-06 19:27 | 45.40285 | 12.22073 | 2409 ft | 203 kts | 43° |
| 2026-05-06 19:28 | 45.41321 | 12.23398 | 2141 ft | 197 kts | 42° |
| 2026-05-06 19:28 | 45.42307 | 12.24659 | 1882 ft | 183 kts | 43° |
| 2026-05-06 19:28 | 45.43187 | 12.25785 | 1665 ft | 162 kts | 43° |
| 2026-05-06 19:28 | 45.43980 | 12.26801 | 1439 ft | 145 kts | 43° |
| 2026-05-06 19:29 | 45.44704 | 12.27728 | 1257 ft | 136 kts | 43° |
| 2026-05-06 19:29 | 45.45402 | 12.28622 | 1077 ft | 134 kts | 42° |
| 2026-05-06 19:29 | 45.46090 | 12.29486 | 914 ft | 130 kts | 41° |
| 2026-05-06 19:29 | 45.46762 | 12.30328 | 762 ft | 127 kts | 40° |
| 2026-05-06 19:30 | 45.47411 | 12.31161 | 574 ft | 126 kts | 42° |
| 2026-05-06 19:30 | 45.48040 | 12.32021 | 388 ft | 124 kts | 42° |
| 2026-05-06 19:30 | 45.48683 | 12.32832 | 257 ft | 124 kts | 41° |
| 2026-05-06 19:30 | 45.49323 | 12.33660 | 82 ft | 123 kts | 39° |
| 2026-05-06 19:31 | 45.49892 | 12.34391 | 13 ft | 80 kts | 42° |
| 2026-05-06 19:31 | 45.50171 | 12.34746 | 15 ft | 50 kts | 42° |
| 2026-05-06 19:31 | 45.50492 | 12.35141 | 14 ft | 7 kts | 360° |
| 2026-05-06 19:32 | 45.50488 | 12.35118 | 16 ft | 6 kts | 238° |
| 2026-05-06 19:32 | 45.50502 | 12.35058 | 14 ft | 0 kts | 25° |
| 2026-05-06 19:32 | 45.50519 | 12.35071 | 14 ft | 5 kts | 27° |
| 2026-05-06 19:32 | 45.50565 | 12.35071 | 15 ft | 7 kts | 349° |
| 2026-05-06 19:33 | 45.50595 | 12.35053 | 15 ft | 6 kts | 338° |
| 2026-05-06 19:33 | 45.50605 | 12.35040 | 16 ft | 1 kts | 311° |
| 2026-05-06 19:33 | 45.50613 | 12.34938 | 15 ft | 16 kts | 267° |
| 2026-05-06 19:33 | 45.50608 | 12.34739 | 16 ft | 23 kts | 265° |
| 2026-05-06 19:34 | 45.50601 | 12.34513 | 16 ft | 21 kts | 267° |
| 2026-05-06 19:34 | 45.50555 | 12.34371 | 16 ft | 14 kts | 221° |
| 2026-05-06 19:34 | 45.50550 | 12.34323 | 16 ft | 9 kts | 284° |
| 2026-05-06 19:34 | 45.50553 | 12.34293 | 16 ft | 2 kts | 264° |
| 2026-05-06 19:35 | 45.50553 | 12.34250 | 16 ft | 3 kts | 267° |
| 2026-05-06 19:35 | 45.50551 | 12.34216 | 16 ft | 1 kts | 267° |
| 2026-05-06 19:35 | 45.50551 | 12.34215 | 16 ft | 0 kts | 267° |